createdAt,value
2023-03-17T00:00:05.986Z,0.00
2023-03-17T00:01:05.968Z,0.00
2023-03-17T00:02:05.963Z,0.00
2023-03-17T00:03:05.974Z,0.00
2023-03-17T00:04:06.116Z,0.00
2023-03-17T00:05:05.944Z,0.00
2023-03-17T00:06:05.892Z,0.00
2023-03-17T00:07:05.903Z,0.00
2023-03-17T00:08:05.891Z,0.00
2023-03-17T00:09:05.952Z,0.00
2023-03-17T00:10:05.846Z,0.00
2023-03-17T00:11:05.858Z,0.00
2023-03-17T00:12:05.847Z,0.00
2023-03-17T00:13:05.830Z,0.00
2023-03-17T00:14:05.807Z,0.00
2023-03-17T00:15:05.833Z,0.00
2023-03-17T00:16:05.847Z,0.00
2023-03-17T00:17:05.798Z,0.00
2023-03-17T00:18:05.760Z,0.00
2023-03-17T00:19:05.765Z,0.00
2023-03-17T00:20:05.736Z,0.00
2023-03-17T00:21:05.749Z,0.00
2023-03-17T00:22:05.716Z,0.00
2023-03-17T00:23:05.735Z,0.00
2023-03-17T00:24:05.747Z,0.00
2023-03-17T00:25:05.708Z,0.00
2023-03-17T00:26:05.686Z,0.00
2023-03-17T00:27:05.685Z,0.00
2023-03-17T00:28:05.655Z,0.00
2023-03-17T00:29:05.668Z,0.00
2023-03-17T00:30:05.636Z,0.00
2023-03-17T00:31:05.733Z,0.00
2023-03-17T00:32:05.620Z,0.00
2023-03-17T00:33:05.623Z,0.00
2023-03-17T00:34:05.573Z,0.00
2023-03-17T00:35:05.594Z,0.00
2023-03-17T00:36:05.633Z,0.00
2023-03-17T00:37:05.565Z,0.00
2023-03-17T00:38:05.561Z,0.00
2023-03-17T00:39:05.544Z,0.00
2023-03-17T00:40:05.538Z,0.00
2023-03-17T00:41:05.540Z,0.00
2023-03-17T00:42:05.517Z,0.00
2023-03-17T00:43:05.572Z,0.00
2023-03-17T00:44:05.474Z,0.00
2023-03-17T00:45:05.485Z,0.00
2023-03-17T00:46:05.454Z,0.00
2023-03-17T00:47:05.490Z,0.00
2023-03-17T00:48:05.419Z,0.00
2023-03-17T00:49:05.437Z,0.00
2023-03-17T00:50:05.394Z,0.00
2023-03-17T00:51:05.468Z,0.00
2023-03-17T00:52:05.373Z,0.00
2023-03-17T00:53:05.388Z,0.00
2023-03-17T00:54:05.348Z,0.00
2023-03-17T00:55:05.363Z,0.00
2023-03-17T00:56:05.342Z,0.00
2023-03-17T00:57:05.350Z,0.00
2023-03-17T00:58:05.310Z,0.00
2023-03-17T00:59:05.318Z,0.00
2023-03-17T01:00:05.294Z,0.00
2023-03-17T01:01:05.381Z,0.00
2023-03-17T01:02:05.306Z,0.00
2023-03-17T01:03:05.287Z,0.00
2023-03-17T01:04:05.259Z,0.00
2023-03-17T01:05:06.740Z,0.00
2023-03-17T01:06:05.231Z,0.00
2023-03-17T01:07:05.237Z,0.00
2023-03-17T01:08:05.208Z,0.00
2023-03-17T01:09:05.220Z,0.00
2023-03-17T01:10:05.218Z,0.00
2023-03-17T01:11:05.160Z,0.00
2023-03-17T01:12:05.180Z,0.00
2023-03-17T01:13:05.149Z,0.00
2023-03-17T01:14:05.165Z,0.00
2023-03-17T01:15:05.133Z,0.00
2023-03-17T01:16:05.140Z,0.00
2023-03-17T01:17:05.098Z,0.00
2023-03-17T01:18:05.113Z,0.00
2023-03-17T01:19:05.075Z,0.00
2023-03-17T01:20:05.084Z,0.00
2023-03-17T01:21:05.080Z,0.00
2023-03-17T01:22:05.056Z,0.00
2023-03-17T01:23:05.025Z,0.00
2023-03-17T01:24:05.047Z,0.00
2023-03-17T01:25:05.026Z,0.00
2023-03-17T01:26:05.046Z,0.00
2023-03-17T01:27:05.045Z,0.00
2023-03-17T01:28:04.999Z,0.00
2023-03-17T01:29:04.975Z,0.00
2023-03-17T01:30:04.978Z,0.00
2023-03-17T01:31:04.950Z,0.00
2023-03-17T01:32:04.957Z,0.00
2023-03-17T01:33:04.960Z,0.00
2023-03-17T01:34:04.944Z,0.00
2023-03-17T01:35:04.898Z,0.00
2023-03-17T01:36:04.916Z,0.00
2023-03-17T01:37:04.900Z,0.00
2023-03-17T01:38:04.892Z,0.00
2023-03-17T01:39:04.848Z,0.00
2023-03-17T01:40:04.864Z,0.00
2023-03-17T01:41:04.826Z,0.00
2023-03-17T01:42:04.855Z,0.00
2023-03-17T01:43:04.820Z,0.00
2023-03-17T01:44:04.853Z,0.00
2023-03-17T01:45:04.798Z,0.00
2023-03-17T01:46:04.856Z,0.00
2023-03-17T01:47:04.764Z,0.00
2023-03-17T01:48:04.774Z,0.00
2023-03-17T01:49:04.742Z,0.00
2023-03-17T01:50:04.762Z,0.00
2023-03-17T01:51:04.720Z,0.00
2023-03-17T01:52:04.726Z,0.00
2023-03-17T01:53:04.715Z,0.00
2023-03-17T01:54:04.704Z,0.00
2023-03-17T01:55:04.677Z,0.00
2023-03-17T01:56:04.696Z,0.00
2023-03-17T01:57:04.652Z,0.00
2023-03-17T01:58:04.665Z,0.00
2023-03-17T01:59:04.634Z,0.00
2023-03-17T02:00:04.637Z,0.00
2023-03-17T02:01:04.649Z,0.00
2023-03-17T02:02:04.630Z,0.00
2023-03-17T02:03:04.598Z,0.00
2023-03-17T02:04:04.739Z,0.00
2023-03-17T02:05:04.585Z,0.00
2023-03-17T02:06:04.572Z,0.00
2023-03-17T02:07:04.556Z,0.00
2023-03-17T02:08:04.553Z,0.00
2023-03-17T02:09:04.514Z,0.00
2023-03-17T02:10:04.527Z,0.00
2023-03-17T02:11:04.504Z,0.00
2023-03-17T02:12:04.513Z,0.00
2023-03-17T02:13:04.490Z,0.00
2023-03-17T02:14:04.482Z,0.00
2023-03-17T02:15:04.466Z,0.00
2023-03-17T02:16:04.640Z,0.00
2023-03-17T02:17:04.420Z,0.00
2023-03-17T02:18:04.448Z,0.00
2023-03-17T02:19:04.413Z,0.00
2023-03-17T02:20:04.436Z,0.00
2023-03-17T02:21:04.390Z,0.00
2023-03-17T02:22:04.400Z,0.00
2023-03-17T02:23:04.364Z,0.00
2023-03-17T02:24:04.373Z,0.00
2023-03-17T02:25:04.359Z,0.00
2023-03-17T02:26:04.370Z,0.00
2023-03-17T02:27:04.391Z,0.00
2023-03-17T02:28:04.374Z,0.00
2023-03-17T02:29:04.322Z,0.00
2023-03-17T02:30:04.342Z,0.00
2023-03-17T02:31:04.337Z,0.00
2023-03-17T02:32:04.324Z,0.00
2023-03-17T02:33:04.297Z,0.00
2023-03-17T02:34:04.258Z,0.00
2023-03-17T02:35:04.270Z,0.00
2023-03-17T02:36:04.558Z,0.00
2023-03-17T02:37:04.203Z,0.00
2023-03-17T02:38:04.212Z,0.00
2023-03-17T02:39:04.222Z,0.00
2023-03-17T02:40:04.223Z,0.00
2023-03-17T02:41:04.164Z,0.00
2023-03-17T02:42:04.198Z,0.00
2023-03-17T02:43:04.142Z,0.00
2023-03-17T02:44:05.084Z,0.00
2023-03-17T02:45:04.220Z,0.00
2023-03-17T02:46:04.173Z,0.00
2023-03-17T02:47:04.092Z,0.00
2023-03-17T02:48:04.132Z,0.00
2023-03-17T02:49:04.086Z,0.00
2023-03-17T02:50:04.097Z,0.00
2023-03-17T02:51:04.057Z,0.00
2023-03-17T02:52:04.066Z,0.00
2023-03-17T02:53:04.023Z,0.00
2023-03-17T02:54:04.061Z,0.00
2023-03-17T02:55:04.034Z,0.00
2023-03-17T02:56:04.022Z,0.00
2023-03-17T02:57:03.983Z,0.00
2023-03-17T02:58:04.005Z,0.00
2023-03-17T02:59:03.973Z,0.00
2023-03-17T03:00:03.998Z,0.00
2023-03-17T03:01:03.977Z,0.00
2023-03-17T03:02:03.958Z,0.00
2023-03-17T03:03:03.929Z,0.00
2023-03-17T03:04:03.950Z,0.00
2023-03-17T03:05:03.910Z,0.00
2023-03-17T03:06:04.621Z,0.00
2023-03-17T03:07:03.897Z,0.00
2023-03-17T03:08:03.891Z,0.00
2023-03-17T03:09:03.861Z,0.00
2023-03-17T03:10:03.883Z,0.00
2023-03-17T03:11:03.833Z,0.00
2023-03-17T03:12:03.861Z,0.00
2023-03-17T03:13:03.810Z,0.00
2023-03-17T03:14:03.823Z,0.00
2023-03-17T03:15:03.796Z,0.00
2023-03-17T03:16:03.874Z,0.00
2023-03-17T03:17:03.793Z,0.00
2023-03-17T03:18:03.782Z,0.00
2023-03-17T03:19:03.732Z,0.00
2023-03-17T03:20:03.752Z,0.00
2023-03-17T03:21:03.735Z,0.00
2023-03-17T03:22:03.769Z,0.00
2023-03-17T03:23:03.691Z,0.00
2023-03-17T03:24:03.719Z,0.00
2023-03-17T03:25:03.681Z,0.00
2023-03-17T03:26:03.711Z,0.00
2023-03-17T03:27:03.661Z,0.00
2023-03-17T03:28:03.694Z,0.00
2023-03-17T03:29:03.649Z,0.00
2023-03-17T03:30:03.641Z,0.00
2023-03-17T03:31:03.701Z,0.00
2023-03-17T03:32:03.654Z,0.00
2023-03-17T03:33:03.601Z,0.00
2023-03-17T03:34:03.611Z,0.00
2023-03-17T03:35:03.576Z,0.00
2023-03-17T03:36:03.666Z,0.00
2023-03-17T03:37:03.562Z,0.00
2023-03-17T03:38:03.552Z,0.00
2023-03-17T03:39:03.518Z,0.00
2023-03-17T03:40:03.593Z,0.00
2023-03-17T03:41:03.511Z,0.00
2023-03-17T03:42:03.520Z,0.00
2023-03-17T03:43:12.988Z,0.00
2023-03-17T03:44:04.495Z,0.00
2023-03-17T03:45:03.452Z,0.00
2023-03-17T03:46:03.523Z,0.00
2023-03-17T03:47:03.438Z,0.00
2023-03-17T03:48:03.453Z,0.00
2023-03-17T03:49:03.433Z,0.00
2023-03-17T03:50:03.425Z,0.00
2023-03-17T03:51:03.392Z,0.00
2023-03-17T03:52:03.401Z,0.00
2023-03-17T03:53:03.366Z,0.00
2023-03-17T03:54:03.374Z,0.00
2023-03-17T03:55:03.339Z,0.00
2023-03-17T03:56:03.353Z,0.00
2023-03-17T03:57:03.313Z,0.00
2023-03-17T03:58:03.332Z,0.00
2023-03-17T03:59:03.306Z,0.00
2023-03-17T04:00:03.310Z,0.00
2023-03-17T04:01:03.276Z,0.00
2023-03-17T04:02:03.302Z,0.00
2023-03-17T04:03:03.303Z,0.00
2023-03-17T04:04:03.276Z,0.00
2023-03-17T04:05:03.360Z,0.00
2023-03-17T04:06:03.250Z,0.00
2023-03-17T04:07:03.213Z,0.00
2023-03-17T04:08:03.222Z,0.00
2023-03-17T04:09:03.194Z,0.00
2023-03-17T04:10:03.651Z,0.00
2023-03-17T04:11:03.194Z,0.00
2023-03-17T04:12:03.188Z,0.00
2023-03-17T04:13:03.141Z,0.00
2023-03-17T04:14:03.150Z,0.00
2023-03-17T04:15:03.133Z,0.00
2023-03-17T04:16:03.168Z,0.00
2023-03-17T04:17:03.102Z,0.00
2023-03-17T04:18:03.123Z,0.00
2023-03-17T04:19:03.099Z,0.00
2023-03-17T04:20:03.087Z,0.00
2023-03-17T04:21:03.066Z,0.00
2023-03-17T04:22:03.076Z,0.00
2023-03-17T04:23:03.028Z,0.00
2023-03-17T04:24:03.038Z,0.00
2023-03-17T04:25:03.002Z,0.00
2023-03-17T04:26:03.029Z,0.00
2023-03-17T04:27:04.873Z,0.00
2023-03-17T04:28:03.016Z,0.00
2023-03-17T04:29:02.978Z,0.00
2023-03-17T04:30:02.987Z,0.00
2023-03-17T04:31:02.952Z,0.00
2023-03-17T04:32:02.988Z,0.00
2023-03-17T04:33:03.026Z,0.00
2023-03-17T04:34:02.928Z,0.00
2023-03-17T04:35:02.899Z,0.00
2023-03-17T04:36:02.951Z,0.00
2023-03-17T04:37:02.866Z,0.00
2023-03-17T04:38:02.898Z,0.00
2023-03-17T04:39:02.857Z,0.00
2023-03-17T04:40:02.875Z,0.00
2023-03-17T04:41:02.839Z,0.00
2023-03-17T04:42:02.866Z,0.00
2023-03-17T04:43:03.620Z,0.00
2023-03-17T04:44:02.854Z,0.00
2023-03-17T04:45:02.823Z,0.00
2023-03-17T04:46:02.910Z,0.00
2023-03-17T04:47:02.793Z,0.00
2023-03-17T04:48:02.794Z,0.00
2023-03-17T04:49:02.752Z,0.00
2023-03-17T04:50:02.810Z,0.00
2023-03-17T04:51:02.745Z,0.00
2023-03-17T04:52:02.736Z,0.00
2023-03-17T04:53:02.773Z,0.00
2023-03-17T04:54:02.738Z,0.00
2023-03-17T04:55:02.707Z,0.00
2023-03-17T04:56:02.729Z,0.00
2023-03-17T04:57:02.671Z,0.00
2023-03-17T04:58:02.676Z,0.00
2023-03-17T04:59:02.645Z,0.00
2023-03-17T05:00:02.687Z,0.00
2023-03-17T05:01:02.680Z,0.00
2023-03-17T05:02:02.691Z,0.00
2023-03-17T05:03:02.862Z,0.00
2023-03-17T05:04:02.625Z,0.00
2023-03-17T05:05:02.611Z,0.00
2023-03-17T05:06:02.610Z,0.00
2023-03-17T05:07:02.579Z,0.00
2023-03-17T05:08:02.588Z,0.00
2023-03-17T05:09:02.547Z,0.00
2023-03-17T05:10:02.556Z,0.00
2023-03-17T05:11:02.741Z,0.00
2023-03-17T05:12:02.539Z,0.00
2023-03-17T05:13:02.494Z,0.00
2023-03-17T05:14:02.552Z,0.00
2023-03-17T05:15:02.465Z,0.00
2023-03-17T05:16:02.487Z,4.00
2023-03-17T05:17:02.459Z,0.00
2023-03-17T05:18:04.916Z,4.00
2023-03-17T05:19:02.422Z,4.00
2023-03-17T05:20:02.464Z,4.00
2023-03-17T05:21:02.459Z,8.00
2023-03-17T05:22:02.425Z,4.00
2023-03-17T05:23:02.381Z,8.00
2023-03-17T05:24:02.394Z,8.00
2023-03-17T05:25:02.376Z,8.00
2023-03-17T05:26:02.356Z,12.00
2023-03-17T05:27:02.405Z,16.00
2023-03-17T05:28:02.330Z,16.00
2023-03-17T05:29:02.445Z,20.00
2023-03-17T05:30:03.308Z,24.00
2023-03-17T05:31:02.429Z,28.00
2023-03-17T05:32:02.327Z,28.00
2023-03-17T05:33:02.361Z,32.00
2023-03-17T05:34:02.305Z,36.00
2023-03-17T05:35:02.262Z,44.00
2023-03-17T05:36:02.314Z,48.00
2023-03-17T05:37:02.262Z,52.00
2023-03-17T05:38:02.230Z,60.00
2023-03-17T05:39:02.250Z,64.00
2023-03-17T05:40:02.224Z,72.00
2023-03-17T05:41:02.210Z,80.00
2023-03-17T05:42:02.180Z,92.00
2023-03-17T05:43:02.280Z,104.00
2023-03-17T05:44:02.158Z,116.00
2023-03-17T05:45:02.183Z,128.00
2023-03-17T05:46:02.176Z,136.00
2023-03-17T05:47:02.147Z,140.00
2023-03-17T05:48:02.122Z,148.00
2023-03-17T05:49:02.135Z,156.00
2023-03-17T05:50:02.133Z,168.00
2023-03-17T05:51:02.420Z,180.00
2023-03-17T05:52:02.067Z,196.00
2023-03-17T05:53:02.069Z,208.00
2023-03-17T05:54:02.051Z,220.00
2023-03-17T05:55:02.171Z,228.00
2023-03-17T05:56:02.056Z,236.00
2023-03-17T05:57:02.080Z,248.00
2023-03-17T05:58:02.000Z,264.00
2023-03-17T05:59:01.997Z,288.00
2023-03-17T06:00:01.982Z,312.00
2023-03-17T06:01:02.004Z,336.00
2023-03-17T06:02:02.008Z,360.00
2023-03-17T06:03:01.998Z,392.00
2023-03-17T06:04:01.972Z,428.00
2023-03-17T06:05:01.948Z,472.00
2023-03-17T06:06:01.912Z,508.00
2023-03-17T06:07:01.939Z,540.00
2023-03-17T06:08:01.915Z,568.00
2023-03-17T06:09:01.922Z,588.00
2023-03-17T06:10:01.880Z,604.00
2023-03-17T06:11:01.902Z,616.00
2023-03-17T06:12:01.878Z,628.00
2023-03-17T06:13:03.895Z,636.00
2023-03-17T06:14:01.863Z,644.00
2023-03-17T06:15:01.851Z,656.00
2023-03-17T06:16:01.832Z,664.00
2023-03-17T06:17:01.812Z,688.00
2023-03-17T06:18:01.789Z,712.00
2023-03-17T06:19:01.797Z,748.00
2023-03-17T06:20:01.776Z,788.00
2023-03-17T06:21:01.788Z,832.00
2023-03-17T06:22:01.792Z,872.00
2023-03-17T06:23:05.261Z,908.00
2023-03-17T06:24:01.722Z,936.00
2023-03-17T06:25:01.735Z,960.00
2023-03-17T06:26:01.865Z,968.00
2023-03-17T06:27:01.748Z,980.00
2023-03-17T06:28:01.677Z,996.00
2023-03-17T06:29:01.691Z,1020.00
2023-03-17T06:30:01.656Z,1060.00
2023-03-17T06:31:01.754Z,1092.00
2023-03-17T06:32:18.817Z,1108.00
2023-03-17T06:33:02.735Z,1120.00
2023-03-17T06:34:01.616Z,1128.00
2023-03-17T06:35:01.625Z,1132.00
2023-03-17T06:36:01.625Z,1152.00
2023-03-17T06:37:01.596Z,1180.00
2023-03-17T06:38:01.573Z,1200.00
2023-03-17T06:39:01.607Z,1188.00
2023-03-17T06:40:01.552Z,1228.00
2023-03-17T06:41:01.567Z,1216.00
2023-03-17T06:42:01.507Z,1196.00
2023-03-17T06:43:01.552Z,1204.00
2023-03-17T06:44:01.574Z,1200.00
2023-03-17T06:45:01.522Z,1196.00
2023-03-17T06:46:01.475Z,1192.00
2023-03-17T06:47:01.490Z,1204.00
2023-03-17T06:48:01.456Z,1204.00
2023-03-17T06:49:01.463Z,1208.00
2023-03-17T06:50:01.465Z,1212.00
2023-03-17T06:51:02.232Z,1224.00
2023-03-17T06:52:01.569Z,1232.00
2023-03-17T06:53:01.584Z,1256.00
2023-03-17T06:54:01.415Z,1272.00
2023-03-17T06:55:01.395Z,1292.00
2023-03-17T06:56:01.367Z,1308.00
2023-03-17T06:57:01.415Z,1320.00
2023-03-17T06:58:01.353Z,1344.00
2023-03-17T06:59:01.353Z,1364.00
2023-03-17T07:00:01.305Z,1384.00
2023-03-17T07:01:01.355Z,1400.00
2023-03-17T07:02:01.320Z,1416.00
2023-03-17T07:03:01.299Z,1436.00
2023-03-17T07:04:01.285Z,1448.00
2023-03-17T07:05:01.372Z,1464.00
2023-03-17T07:06:01.232Z,1476.00
2023-03-17T07:07:01.261Z,1488.00
2023-03-17T07:08:01.243Z,1504.00
2023-03-17T07:09:02.333Z,1516.00
2023-03-17T07:10:01.203Z,1536.00
2023-03-17T07:11:01.344Z,1548.00
2023-03-17T07:12:01.182Z,1580.00
2023-03-17T07:13:01.781Z,1604.00
2023-03-17T07:14:01.183Z,1628.00
2023-03-17T07:15:01.216Z,1656.00
2023-03-17T07:16:01.189Z,1676.00
2023-03-17T07:17:01.150Z,1696.00
2023-03-17T07:18:01.251Z,1712.00
2023-03-17T07:19:01.147Z,1716.00
2023-03-17T07:20:01.138Z,1728.00
2023-03-17T07:21:01.112Z,1728.00
2023-03-17T07:22:01.101Z,1716.00
2023-03-17T07:23:01.136Z,1712.00
2023-03-17T07:24:01.045Z,1704.00
2023-03-17T07:25:01.077Z,1688.00
2023-03-17T07:26:01.032Z,1688.00
2023-03-17T07:27:01.078Z,1684.00
2023-03-17T07:28:01.009Z,1684.00
2023-03-17T07:29:01.495Z,1684.00
2023-03-17T07:30:01.010Z,1672.00
2023-03-17T07:31:01.062Z,1664.00
2023-03-17T07:32:00.988Z,1668.00
2023-03-17T07:33:01.056Z,1656.00
2023-03-17T07:34:00.973Z,1664.00
2023-03-17T07:35:00.981Z,1672.00
2023-03-17T07:36:00.957Z,1664.00
2023-03-17T07:37:00.972Z,1652.00
2023-03-17T07:38:00.909Z,1664.00
2023-03-17T07:39:00.967Z,1652.00
2023-03-17T07:40:00.868Z,1660.00
2023-03-17T07:41:01.034Z,1620.00
2023-03-17T07:42:00.929Z,1676.00
2023-03-17T07:43:00.940Z,1704.00
2023-03-17T07:44:00.998Z,1720.00
2023-03-17T07:45:00.921Z,1740.00
2023-03-17T07:46:00.898Z,1716.00
2023-03-17T07:47:00.928Z,1736.00
2023-03-17T07:48:00.847Z,1772.00
2023-03-17T07:49:00.996Z,1788.00
2023-03-17T07:50:00.881Z,1808.00
2023-03-17T07:51:00.856Z,1808.00
2023-03-17T07:52:00.827Z,1848.00
2023-03-17T07:53:00.810Z,1848.00
2023-03-17T07:54:00.794Z,1892.00
2023-03-17T07:55:00.807Z,1936.00
2023-03-17T07:56:00.758Z,1896.00
2023-03-17T07:57:00.756Z,1768.00
2023-03-17T07:58:00.856Z,1796.00
2023-03-17T07:59:00.719Z,1924.00
2023-03-17T08:00:00.650Z,2028.00
2023-03-17T08:01:00.724Z,2064.00
2023-03-17T08:02:00.765Z,2048.00
2023-03-17T08:03:09.830Z,2028.00
2023-03-17T08:04:01.813Z,2128.00
2023-03-17T08:05:00.687Z,2208.00
2023-03-17T08:06:00.714Z,2348.00
2023-03-17T08:07:01.471Z,2384.00
2023-03-17T08:08:00.608Z,2468.00
2023-03-17T08:09:00.654Z,2432.00
2023-03-17T08:10:00.605Z,2556.00
2023-03-17T08:11:00.675Z,2684.00
2023-03-17T08:12:00.580Z,2760.00
2023-03-17T08:13:00.633Z,2880.00
2023-03-17T08:14:00.574Z,2988.00
2023-03-17T08:15:00.572Z,3048.00
2023-03-17T08:16:00.463Z,3112.00
2023-03-17T08:17:00.705Z,3128.00
2023-03-17T08:18:00.552Z,3144.00
2023-03-17T08:19:00.568Z,3172.00
2023-03-17T08:20:00.489Z,3200.00
2023-03-17T08:21:00.545Z,3236.00
2023-03-17T08:22:01.174Z,3292.00
2023-03-17T08:23:00.511Z,3340.00
2023-03-17T08:24:00.413Z,3368.00
2023-03-17T08:25:00.506Z,3372.00
2023-03-17T08:26:00.452Z,3368.00
2023-03-17T08:27:01.002Z,3372.00
2023-03-17T08:28:01.095Z,3416.00
2023-03-17T08:29:00.414Z,3396.00
2023-03-17T08:30:00.433Z,3340.00
2023-03-17T08:31:00.458Z,3304.00
2023-03-17T08:32:00.382Z,3300.00
2023-03-17T08:33:00.355Z,3236.00
2023-03-17T08:34:00.481Z,3268.00
2023-03-17T08:35:00.440Z,3276.00
2023-03-17T08:36:00.380Z,3252.00
2023-03-17T08:37:00.342Z,3144.00
2023-03-17T08:38:00.286Z,3108.00
2023-03-17T08:39:00.331Z,2996.00
2023-03-17T08:40:00.272Z,2972.00
2023-03-17T08:41:00.277Z,2908.00
2023-03-17T08:42:00.256Z,2896.00
2023-03-17T08:43:00.233Z,2912.00
2023-03-17T08:44:00.222Z,2940.00
2023-03-17T08:45:00.399Z,2988.00
2023-03-17T08:46:00.246Z,3088.00
2023-03-17T08:47:00.335Z,3044.00
2023-03-17T08:48:00.864Z,3048.00
2023-03-17T08:49:00.176Z,3088.00
2023-03-17T08:50:00.148Z,3072.00
2023-03-17T08:51:00.179Z,3064.00
2023-03-17T08:52:00.133Z,3076.00
2023-03-17T08:53:00.100Z,3040.00
2023-03-17T08:54:00.034Z,2992.00
2023-03-17T08:55:00.046Z,2912.00
2023-03-17T08:56:00.013Z,2820.00
2023-03-17T08:57:00.077Z,2696.00
2023-03-17T08:58:00.049Z,2656.00
2023-03-17T08:59:00.001Z,2640.00
2023-03-17T08:59:59.966Z,2556.00
2023-03-17T09:01:00.047Z,2492.00
2023-03-17T09:01:59.955Z,2488.00
2023-03-17T09:03:00.129Z,2468.00
2023-03-17T09:03:59.973Z,2536.00
2023-03-17T09:04:59.934Z,2528.00
2023-03-17T09:05:59.911Z,2512.00
2023-03-17T09:07:03.784Z,2476.00
2023-03-17T09:08:00.818Z,2204.00
2023-03-17T09:08:59.945Z,2200.00
2023-03-17T09:09:59.876Z,2180.00
2023-03-17T09:10:59.874Z,2048.00
2023-03-17T09:11:59.865Z,2052.00
2023-03-17T09:12:59.845Z,2012.00
2023-03-17T09:13:59.824Z,2076.00
2023-03-17T09:14:59.912Z,2140.00
2023-03-17T09:15:59.829Z,2124.00
2023-03-17T09:16:59.816Z,2104.00
2023-03-17T09:17:59.985Z,2128.00
2023-03-17T09:18:59.819Z,2104.00
2023-03-17T09:19:59.765Z,2000.00
2023-03-17T09:20:59.759Z,1784.00
2023-03-17T09:21:59.724Z,1844.00
2023-03-17T09:22:59.746Z,1872.00
2023-03-17T09:24:02.203Z,1952.00
2023-03-17T09:24:59.717Z,2004.00
2023-03-17T09:25:59.674Z,2024.00
2023-03-17T09:26:59.744Z,2064.00
2023-03-17T09:28:00.459Z,2152.00
2023-03-17T09:29:02.486Z,2284.00
2023-03-17T09:29:59.668Z,2328.00
2023-03-17T09:30:59.720Z,2296.00
2023-03-17T09:31:59.633Z,2364.00
2023-03-17T09:32:59.665Z,2440.00
2023-03-17T09:33:59.604Z,2544.00
2023-03-17T09:34:59.599Z,2636.00
2023-03-17T09:35:59.611Z,2712.00
2023-03-17T09:36:59.575Z,2728.00
2023-03-17T09:37:59.565Z,2760.00
2023-03-17T09:38:59.563Z,2860.00
2023-03-17T09:39:59.527Z,2960.00
2023-03-17T09:40:59.547Z,2984.00
2023-03-17T09:41:59.533Z,2952.00
2023-03-17T09:42:59.483Z,2980.00
2023-03-17T09:43:59.491Z,3012.00
2023-03-17T09:44:59.487Z,2952.00
2023-03-17T09:45:59.540Z,2968.00
2023-03-17T09:46:59.444Z,2992.00
2023-03-17T09:47:59.465Z,3024.00
2023-03-17T09:48:59.486Z,3076.00
2023-03-17T09:49:59.444Z,3168.00
2023-03-17T09:50:59.442Z,3136.00
2023-03-17T09:51:59.415Z,3084.00
2023-03-17T09:53:05.977Z,3120.00
2023-03-17T09:54:25.833Z,3212.00
2023-03-17T09:55:07.467Z,3284.00
2023-03-17T09:55:59.373Z,3344.00
2023-03-17T09:56:59.371Z,3528.00
2023-03-17T09:57:59.356Z,3580.00
2023-03-17T09:58:59.347Z,3552.00
2023-03-17T09:59:59.303Z,3472.00
2023-03-17T10:00:59.395Z,3424.00
2023-03-17T10:01:59.511Z,3408.00
2023-03-17T10:02:59.522Z,3392.00
2023-03-17T10:03:59.492Z,3280.00
2023-03-17T10:04:59.506Z,3244.00
2023-03-17T10:05:59.393Z,3248.00
2023-03-17T10:06:59.374Z,3276.00
2023-03-17T10:07:59.394Z,3320.00
2023-03-17T10:08:59.600Z,3396.00
2023-03-17T10:09:59.571Z,3512.00
2023-03-17T10:10:59.418Z,3644.00
2023-03-17T10:11:59.353Z,3776.00
2023-03-17T10:12:59.384Z,3904.00
2023-03-17T10:13:59.363Z,3988.00
2023-03-17T10:14:59.320Z,4056.00
2023-03-17T10:15:59.376Z,4104.00
2023-03-17T10:16:59.298Z,4116.00
2023-03-17T10:17:59.299Z,4092.00
2023-03-17T10:18:59.309Z,4064.00
2023-03-17T10:19:59.236Z,4008.00
2023-03-17T10:20:59.253Z,4008.00
2023-03-17T10:21:59.220Z,3952.00
2023-03-17T10:22:59.312Z,3944.00
2023-03-17T10:23:59.228Z,3804.00
2023-03-17T10:25:00.171Z,3708.00
2023-03-17T10:25:59.177Z,3700.00
2023-03-17T10:26:59.243Z,3652.00
2023-03-17T10:27:59.220Z,3596.00
2023-03-17T10:28:59.258Z,3560.00
2023-03-17T10:29:59.779Z,3552.00
2023-03-17T10:30:58.971Z,3528.00
2023-03-17T10:31:59.137Z,3524.00
2023-03-17T10:32:59.070Z,3588.00
2023-03-17T10:33:58.963Z,3708.00
2023-03-17T10:34:58.913Z,3772.00
2023-03-17T10:35:58.952Z,3848.00
2023-03-17T10:36:58.901Z,3800.00
2023-03-17T10:38:13.607Z,3728.00
2023-03-17T10:38:59.876Z,3696.00
2023-03-17T10:39:58.852Z,3760.00
2023-03-17T10:40:58.907Z,3752.00
2023-03-17T10:41:58.824Z,3644.00
2023-03-17T10:42:58.822Z,3576.00
2023-03-17T10:43:58.805Z,3528.00
2023-03-17T10:44:58.801Z,3536.00
2023-03-17T10:45:58.828Z,3544.00
2023-03-17T10:46:58.813Z,3504.00
2023-03-17T10:47:58.764Z,3412.00
2023-03-17T10:48:58.766Z,3308.00
2023-03-17T10:49:59.648Z,3280.00
2023-03-17T10:50:59.548Z,3256.00
2023-03-17T10:51:58.734Z,3304.00
2023-03-17T10:52:58.752Z,3308.00
2023-03-17T10:53:58.727Z,3196.00
2023-03-17T10:54:58.707Z,3108.00
2023-03-17T10:55:58.705Z,3128.00
2023-03-17T10:56:59.271Z,3148.00
2023-03-17T10:57:58.674Z,3152.00
2023-03-17T10:58:58.645Z,3236.00
2023-03-17T10:59:58.652Z,3212.00
2023-03-17T11:00:58.670Z,3116.00
2023-03-17T11:01:58.652Z,3004.00
2023-03-17T11:02:58.638Z,2836.00
2023-03-17T11:03:58.649Z,2724.00
2023-03-17T11:04:58.677Z,2744.00
2023-03-17T11:05:58.570Z,2712.00
2023-03-17T11:06:58.575Z,2760.00
2023-03-17T11:07:58.570Z,2792.00
2023-03-17T11:08:58.549Z,2964.00
2023-03-17T11:09:58.543Z,3252.00
2023-03-17T11:10:58.823Z,3476.00
2023-03-17T11:11:58.500Z,3708.00
2023-03-17T11:12:58.521Z,3852.00
2023-03-17T11:13:58.448Z,3956.00
2023-03-17T11:14:58.484Z,3968.00
2023-03-17T11:15:58.490Z,4000.00
2023-03-17T11:16:58.448Z,4044.00
2023-03-17T11:17:58.420Z,4136.00
2023-03-17T11:18:58.436Z,4272.00
2023-03-17T11:19:58.391Z,4580.00
2023-03-17T11:20:58.432Z,4956.00
2023-03-17T11:21:58.378Z,5260.00
2023-03-17T11:22:58.394Z,5432.00
2023-03-17T11:23:58.361Z,5416.00
2023-03-17T11:24:58.519Z,5360.00
2023-03-17T11:25:58.334Z,5316.00
2023-03-17T11:26:59.299Z,5312.00
2023-03-17T11:27:58.340Z,5300.00
2023-03-17T11:28:58.329Z,5256.00
2023-03-17T11:29:58.343Z,5164.00
2023-03-17T11:30:59.046Z,5112.00
2023-03-17T11:31:58.313Z,5052.00
2023-03-17T11:32:58.344Z,4884.00
2023-03-17T11:33:58.247Z,4784.00
2023-03-17T11:34:58.248Z,4984.00
2023-03-17T11:35:58.245Z,5140.00
2023-03-17T11:36:59.998Z,5248.00
2023-03-17T11:37:58.191Z,5312.00
2023-03-17T11:38:58.233Z,5396.00
2023-03-17T11:39:58.177Z,5492.00
2023-03-17T11:40:58.188Z,5560.00
2023-03-17T11:41:58.161Z,5628.00
2023-03-17T11:42:58.177Z,5708.00
2023-03-17T11:43:58.131Z,5756.00
2023-03-17T11:44:58.172Z,5812.00
2023-03-17T11:45:58.132Z,5936.00
2023-03-17T11:46:58.130Z,6068.00
2023-03-17T11:47:59.909Z,6140.00
2023-03-17T11:48:58.097Z,6172.00
2023-03-17T11:49:58.060Z,6172.00
2023-03-17T11:50:58.776Z,6140.00
2023-03-17T11:51:58.139Z,6080.00
2023-03-17T11:52:58.124Z,6048.00
2023-03-17T11:53:58.011Z,6060.00
2023-03-17T11:54:58.982Z,6100.00
2023-03-17T11:55:58.055Z,6188.00
2023-03-17T11:56:58.099Z,6292.00
2023-03-17T11:57:57.997Z,6384.00
2023-03-17T11:58:57.992Z,6460.00
2023-03-17T11:59:57.961Z,6496.00
2023-03-17T12:00:57.968Z,6472.00
2023-03-17T12:01:58.142Z,6488.00
2023-03-17T12:02:57.960Z,6556.00
2023-03-17T12:03:58.757Z,6612.00
2023-03-17T12:04:57.950Z,6632.00
2023-03-17T12:05:57.953Z,6600.00
2023-03-17T12:06:57.891Z,6584.00
2023-03-17T12:07:57.885Z,6644.00
2023-03-17T12:08:57.893Z,6768.00
2023-03-17T12:09:57.853Z,6904.00
2023-03-17T12:10:57.926Z,6976.00
2023-03-17T12:11:58.029Z,6948.00
2023-03-17T12:12:58.008Z,6860.00
2023-03-17T12:13:57.820Z,6800.00
2023-03-17T12:14:57.809Z,6796.00
2023-03-17T12:15:57.795Z,6784.00
2023-03-17T12:16:57.780Z,6704.00
2023-03-17T12:17:57.755Z,6668.00
2023-03-17T12:18:57.771Z,6656.00
2023-03-17T12:19:57.725Z,6608.00
2023-03-17T12:20:57.746Z,6492.00
2023-03-17T12:21:57.724Z,6356.00
2023-03-17T12:22:57.747Z,6292.00
2023-03-17T12:23:57.741Z,6336.00
2023-03-17T12:24:57.732Z,6364.00
2023-03-17T12:25:57.685Z,6340.00
2023-03-17T12:26:57.720Z,6364.00
2023-03-17T12:27:57.682Z,6508.00
2023-03-17T12:28:57.809Z,6652.00
2023-03-17T12:29:57.709Z,6660.00
2023-03-17T12:30:57.675Z,6568.00
2023-03-17T12:31:57.724Z,6452.00
2023-03-17T12:32:57.725Z,6412.00
2023-03-17T12:33:57.567Z,6516.00
2023-03-17T12:34:57.642Z,6648.00
2023-03-17T12:35:57.632Z,6720.00
2023-03-17T12:36:57.574Z,6772.00